sensor_id;sensor_type;location;lat;lon;timestamp;pressure;altitude;pressure_sealevel;temperature;humidity
64388;BME280;50709;52.648;4.764;2022-11-15T00:00:16;100810.19;;;15.00;56.71
64388;BME280;50709;52.648;4.764;2022-11-15T00:02:42;100826.84;;;14.99;56.66
64388;BME280;50709;52.648;4.764;2022-11-15T00:05:07;100831.31;;;14.94;57.09
64388;BME280;50709;52.648;4.764;2022-11-15T00:07:32;100818.34;;;14.83;57.07
64388;BME280;50709;52.648;4.764;2022-11-15T00:09:58;100795.03;;;14.58;56.22
64388;BME280;50709;52.648;4.764;2022-11-15T00:12:23;100815.13;;;14.64;57.11
64388;BME280;50709;52.648;4.764;2022-11-15T00:14:48;100819.47;;;14.67;56.41
64388;BME280;50709;52.648;4.764;2022-11-15T00:17:13;100813.44;;;14.58;56.49
64388;BME280;50709;52.648;4.764;2022-11-15T00:19:39;100808.25;;;14.55;56.70
64388;BME280;50709;52.648;4.764;2022-11-15T00:22:04;100819.66;;;14.53;56.26
64388;BME280;50709;52.648;4.764;2022-11-15T00:24:29;100818.03;;;14.42;56.57
64388;BME280;50709;52.648;4.764;2022-11-15T00:26:55;100804.09;;;14.37;58.33
64388;BME280;50709;52.648;4.764;2022-11-15T00:29:20;100810.97;;;14.47;57.99
64388;BME280;50709;52.648;4.764;2022-11-15T00:31:45;100804.09;;;14.39;57.17
64388;BME280;50709;52.648;4.764;2022-11-15T00:34:11;100812.91;;;14.35;57.31
64388;BME280;50709;52.648;4.764;2022-11-15T00:36:36;100802.41;;;14.35;57.52
64388;BME280;50709;52.648;4.764;2022-11-15T00:39:04;100805.94;;;14.34;56.90
64388;BME280;50709;52.648;4.764;2022-11-15T00:41:30;100806.94;;;14.23;57.65
64388;BME280;50709;52.648;4.764;2022-11-15T00:43:56;100794.63;;;14.27;57.03
64388;BME280;50709;52.648;4.764;2022-11-15T00:46:21;100799.97;;;14.21;58.01
64388;BME280;50709;52.648;4.764;2022-11-15T00:48:46;100806.06;;;14.23;59.15
64388;BME280;50709;52.648;4.764;2022-11-15T00:51:12;100792.84;;;14.29;57.87
64388;BME280;50709;52.648;4.764;2022-11-15T00:53:37;100782.44;;;14.23;57.72
64388;BME280;50709;52.648;4.764;2022-11-15T00:56:03;100791.16;;;14.23;57.23
64388;BME280;50709;52.648;4.764;2022-11-15T00:58:28;100790.34;;;14.21;57.26
64388;BME280;50709;52.648;4.764;2022-11-15T01:00:53;100792.16;;;14.13;57.75
64388;BME280;50709;52.648;4.764;2022-11-15T01:03:19;100778.28;;;14.05;56.76
64388;BME280;50709;52.648;4.764;2022-11-15T01:05:45;100774.78;;;14.04;57.07
64388;BME280;50709;52.648;4.764;2022-11-15T01:08:14;100765.25;;;13.99;57.13
64388;BME280;50709;52.648;4.764;2022-11-15T01:10:40;100780.06;;;14.03;58.37
64388;BME280;50709;52.648;4.764;2022-11-15T01:13:06;100764.31;;;14.03;57.51
64388;BME280;50709;52.648;4.764;2022-11-15T01:15:31;100750.47;;;13.90;57.46
64388;BME280;50709;52.648;4.764;2022-11-15T01:17:56;100770.44;;;14.03;57.93
64388;BME280;50709;52.648;4.764;2022-11-15T01:20:22;100768.66;;;14.05;58.73
64388;BME280;50709;52.648;4.764;2022-11-15T01:22:47;100763.47;;;14.01;58.69
64388;BME280;50709;52.648;4.764;2022-11-15T01:25:12;100772.22;;;14.01;58.35
64388;BME280;50709;52.648;4.764;2022-11-15T01:27:38;100770.59;;;13.91;59.00
64388;BME280;50709;52.648;4.764;2022-11-15T01:30:03;100771.50;;;13.88;59.94
64388;BME280;50709;52.648;4.764;2022-11-15T01:32:29;100756.75;;;13.79;59.79
64388;BME280;50709;52.648;4.764;2022-11-15T01:34:55;100771.44;;;13.91;59.91
64388;BME280;50709;52.648;4.764;2022-11-15T01:37:20;100767.00;;;14.00;59.56
64388;BME280;50709;52.648;4.764;2022-11-15T01:39:45;100772.97;;;14.09;60.54
64388;BME280;50709;52.648;4.764;2022-11-15T01:42:12;100763.44;;;14.02;59.38
64388;BME280;50709;52.648;4.764;2022-11-15T01:44:51;100772.91;;;14.14;59.58
64388;BME280;50709;52.648;4.764;2022-11-15T01:47:28;100760.63;;;14.18;59.30
64388;BME280;50709;52.648;4.764;2022-11-15T01:50:01;100754.56;;;14.12;60.31
64388;BME280;50709;52.648;4.764;2022-11-15T01:52:29;100747.66;;;14.05;59.89
64388;BME280;50709;52.648;4.764;2022-11-15T01:55:03;100756.31;;;14.12;60.45
64388;BME280;50709;52.648;4.764;2022-11-15T01:57:30;100751.91;;;14.12;60.54
64388;BME280;50709;52.648;4.764;2022-11-15T01:59:56;100750.22;;;14.08;59.88
64388;BME280;50709;52.648;4.764;2022-11-15T02:02:22;100705.06;;;13.83;60.68
64388;BME280;50709;52.648;4.764;2022-11-15T02:04:47;100745.84;;;14.09;60.15
64388;BME280;50709;52.648;4.764;2022-11-15T02:07:17;100746.75;;;14.08;61.03
64388;BME280;50709;52.648;4.764;2022-11-15T02:09:43;100721.53;;;13.96;60.10
64388;BME280;50709;52.648;4.764;2022-11-15T02:12:09;100703.19;;;13.91;60.36
64388;BME280;50709;52.648;4.764;2022-11-15T02:14:38;100726.66;;;14.05;59.72
64388;BME280;50709;52.648;4.764;2022-11-15T02:26:21;100713.03;;;13.77;61.02
64388;BME280;50709;52.648;4.764;2022-11-15T02:28:59;100707.72;;;13.80;60.26
64388;BME280;50709;52.648;4.764;2022-11-15T02:37:28;100678.16;;;13.66;59.52
64388;BME280;50709;52.648;4.764;2022-11-15T02:40:26;100688.59;;;13.72;60.03
64388;BME280;50709;52.648;4.764;2022-11-15T02:42:56;100683.44;;;13.67;59.94
64388;BME280;50709;52.648;4.764;2022-11-15T02:45:48;100685.06;;;13.74;60.70
64388;BME280;50709;52.648;4.764;2022-11-15T02:48:15;100681.56;;;13.72;59.92
64388;BME280;50709;52.648;4.764;2022-11-15T02:50:42;100672.81;;;13.73;60.54
64388;BME280;50709;52.648;4.764;2022-11-15T02:53:08;100676.31;;;13.75;60.36
64388;BME280;50709;52.648;4.764;2022-11-15T02:55:54;100668.41;;;13.77;61.03
64388;BME280;50709;52.648;4.764;2022-11-15T03:04:07;100655.31;;;13.75;59.91
64388;BME280;50709;52.648;4.764;2022-11-15T03:06:42;100651.03;;;13.68;59.62
64388;BME280;50709;52.648;4.764;2022-11-15T03:11:48;100648.38;;;13.70;59.42
64388;BME280;50709;52.648;4.764;2022-11-15T03:14:21;100642.28;;;13.68;60.09
64388;BME280;50709;52.648;4.764;2022-11-15T03:19:41;100649.28;;;13.69;60.66
64388;BME280;50709;52.648;4.764;2022-11-15T03:22:12;100644.06;;;13.66;60.42
64388;BME280;50709;52.648;4.764;2022-11-15T03:24:41;100639.72;;;13.63;60.43
64388;BME280;50709;52.648;4.764;2022-11-15T03:27:09;100640.50;;;13.70;61.02
64388;BME280;50709;52.648;4.764;2022-11-15T03:29:39;100617.97;;;13.55;60.19
64388;BME280;50709;52.648;4.764;2022-11-15T03:32:11;100612.72;;;13.55;60.53
64388;BME280;50709;52.648;4.764;2022-11-15T03:34:53;100593.75;;;13.36;60.73
64388;BME280;50709;52.648;4.764;2022-11-15T03:37:22;100628.34;;;13.64;60.07
64388;BME280;50709;52.648;4.764;2022-11-15T03:39:50;100632.63;;;13.71;61.14
64388;BME280;50709;52.648;4.764;2022-11-15T03:45:32;100611.53;;;13.77;60.90
64388;BME280;50709;52.648;4.764;2022-11-15T03:48:24;100627.19;;;13.84;60.29
64388;BME280;50709;52.648;4.764;2022-11-15T03:50:51;100631.59;;;13.82;60.34
64388;BME280;50709;52.648;4.764;2022-11-15T03:53:16;100625.56;;;13.75;61.39
64388;BME280;50709;52.648;4.764;2022-11-15T03:55:41;100618.50;;;13.80;61.90
64388;BME280;50709;52.648;4.764;2022-11-15T03:58:07;100618.47;;;13.82;61.84
64388;BME280;50709;52.648;4.764;2022-11-15T04:00:32;100621.91;;;13.87;62.44
64388;BME280;50709;52.648;4.764;2022-11-15T04:02:58;100612.38;;;13.79;62.14
64388;BME280;50709;52.648;4.764;2022-11-15T04:05:23;100617.53;;;13.86;62.46
64388;BME280;50709;52.648;4.764;2022-11-15T04:07:49;100621.88;;;13.88;62.03
64388;BME280;50709;52.648;4.764;2022-11-15T04:10:14;100616.63;;;13.87;62.95
64388;BME280;50709;52.648;4.764;2022-11-15T04:12:42;100587.91;;;13.77;62.10
64388;BME280;50709;52.648;4.764;2022-11-15T04:15:09;100606.88;;;13.95;62.59
64388;BME280;50709;52.648;4.764;2022-11-15T04:17:43;100578.34;;;13.73;62.71
64388;BME280;50709;52.648;4.764;2022-11-15T04:22:57;100607.91;;;13.85;63.75
64388;BME280;50709;52.648;4.764;2022-11-15T04:25:42;100601.81;;;13.84;62.42
64388;BME280;50709;52.648;4.764;2022-11-15T04:28:08;100592.16;;;13.85;63.03
64388;BME280;50709;52.648;4.764;2022-11-15T04:30:33;100596.56;;;13.84;64.06
64388;BME280;50709;52.648;4.764;2022-11-15T04:32:59;100595.72;;;13.80;64.30
64388;BME280;50709;52.648;4.764;2022-11-15T04:35:24;100600.75;;;13.96;63.98
64388;BME280;50709;52.648;4.764;2022-11-15T04:37:50;100588.63;;;13.87;64.53
64388;BME280;50709;52.648;4.764;2022-11-15T04:40:15;100603.44;;;13.91;63.90
64388;BME280;50709;52.648;4.764;2022-11-15T04:42:41;100596.50;;;13.87;64.08
64388;BME280;50709;52.648;4.764;2022-11-15T04:45:09;100592.03;;;13.95;64.24
64388;BME280;50709;52.648;4.764;2022-11-15T04:47:34;100595.25;;;14.11;63.43
64388;BME280;50709;52.648;4.764;2022-11-15T04:50:00;100585.66;;;14.09;63.29
64388;BME280;50709;52.648;4.764;2022-11-15T04:52:25;100593.56;;;14.07;63.32
64388;BME280;50709;52.648;4.764;2022-11-15T04:54:50;100590.88;;;14.12;63.62
64388;BME280;50709;52.648;4.764;2022-11-15T04:57:16;100595.25;;;14.11;63.79
64388;BME280;50709;52.648;4.764;2022-11-15T04:59:41;100597.88;;;14.11;63.84
64388;BME280;50709;52.648;4.764;2022-11-15T05:02:06;100588.41;;;14.01;64.63
64388;BME280;50709;52.648;4.764;2022-11-15T05:04:32;100603.09;;;14.13;63.84
64388;BME280;50709;52.648;4.764;2022-11-15T05:06:57;100573.66;;;13.95;64.99
64388;BME280;50709;52.648;4.764;2022-11-15T05:09:23;100602.94;;;14.22;64.33
64388;BME280;50709;52.648;4.764;2022-11-15T05:11:51;100598.59;;;14.20;63.88
64388;BME280;50709;52.648;4.764;2022-11-15T05:14:17;100603.81;;;14.23;63.96
64388;BME280;50709;52.648;4.764;2022-11-15T05:16:43;100595.94;;;14.23;64.43
64388;BME280;50709;52.648;4.764;2022-11-15T05:19:08;100600.25;;;14.27;64.17
64388;BME280;50709;52.648;4.764;2022-11-15T05:21:34;100605.44;;;14.30;63.80
64388;BME280;50709;52.648;4.764;2022-11-15T05:23:59;100591.47;;;14.26;64.41
64388;BME280;50709;52.648;4.764;2022-11-15T05:26:25;100589.81;;;14.24;63.73
64388;BME280;50709;52.648;4.764;2022-11-15T05:28:55;100596.66;;;14.33;64.30
64388;BME280;50709;52.648;4.764;2022-11-15T05:31:21;100581.91;;;14.25;64.75
64388;BME280;50709;52.648;4.764;2022-11-15T05:33:48;100590.47;;;14.35;64.15
64388;BME280;50709;52.648;4.764;2022-11-15T05:38:54;100582.53;;;14.38;64.57
64388;BME280;50709;52.648;4.764;2022-11-15T05:41:25;100591.09;;;14.48;64.50
64388;BME280;50709;52.648;4.764;2022-11-15T05:43:52;100592.06;;;14.44;64.38
64388;BME280;50709;52.648;4.764;2022-11-15T05:46:18;100592.94;;;14.44;64.30
64388;BME280;50709;52.648;4.764;2022-11-15T05:48:47;100595.53;;;14.46;64.11
64388;BME280;50709;52.648;4.764;2022-11-15T05:51:15;100605.97;;;14.49;65.04
64388;BME280;50709;52.648;4.764;2022-11-15T05:53:42;100570.38;;;14.33;64.42
64388;BME280;50709;52.648;4.764;2022-11-15T05:56:08;100607.72;;;14.50;65.07
64388;BME280;50709;52.648;4.764;2022-11-15T05:58:34;100625.19;;;14.53;64.85
64388;BME280;50709;52.648;4.764;2022-11-15T06:01:00;100612.19;;;14.45;64.35
64388;BME280;50709;52.648;4.764;2022-11-15T06:03:26;100625.22;;;14.51;64.70
64388;BME280;50709;52.648;4.764;2022-11-15T06:05:51;100627.88;;;14.48;64.91
64388;BME280;50709;52.648;4.764;2022-11-15T06:08:16;100620.03;;;14.46;64.99
64388;BME280;50709;52.648;4.764;2022-11-15T06:10:41;100625.19;;;14.53;64.92
64388;BME280;50709;52.648;4.764;2022-11-15T06:13:07;100610.28;;;14.53;65.09
64388;BME280;50709;52.648;4.764;2022-11-15T06:15:33;100630.91;;;14.76;65.05
64388;BME280;50709;52.648;4.764;2022-11-15T06:17:59;100624.47;;;14.94;64.84
64388;BME280;50709;52.648;4.764;2022-11-15T06:20:28;100638.91;;;15.19;64.13
64388;BME280;50709;52.648;4.764;2022-11-15T06:23:01;100622.63;;;15.42;63.98
64388;BME280;50709;52.648;4.764;2022-11-15T06:25:28;100600.13;;;15.68;63.10
64388;BME280;50709;52.648;4.764;2022-11-15T06:27:57;100625.25;;;16.20;62.47
64388;BME280;50709;52.648;4.764;2022-11-15T06:30:24;100628.00;;;16.50;60.41
64388;BME280;50709;52.648;4.764;2022-11-15T06:32:50;100637.69;;;16.82;60.45
64388;BME280;50709;52.648;4.764;2022-11-15T06:35:16;100630.59;;;17.18;60.41
64388;BME280;50709;52.648;4.764;2022-11-15T06:37:42;100634.00;;;17.53;59.80
64388;BME280;50709;52.648;4.764;2022-11-15T06:40:08;100644.88;;;18.00;59.13
64388;BME280;50709;52.648;4.764;2022-11-15T06:42:34;100624.28;;;18.11;59.57
64388;BME280;50709;52.648;4.764;2022-11-15T06:44:59;100634.50;;;18.49;59.03
64388;BME280;50709;52.648;4.764;2022-11-15T06:47:25;100644.63;;;18.61;58.52
64388;BME280;50709;52.648;4.764;2022-11-15T06:49:50;100618.66;;;18.47;58.62
64388;BME280;50709;52.648;4.764;2022-11-15T06:52:16;100660.13;;;18.72;59.33
64388;BME280;50709;52.648;4.764;2022-11-15T06:54:43;100653.97;;;18.72;58.40
64388;BME280;50709;52.648;4.764;2022-11-15T06:57:09;100652.25;;;18.71;58.93
64388;BME280;50709;52.648;4.764;2022-11-15T06:59:34;100644.34;;;18.69;59.09
64388;BME280;50709;52.648;4.764;2022-11-15T07:02:00;100638.38;;;18.64;59.18
64388;BME280;50709;52.648;4.764;2022-11-15T07:04:25;100641.41;;;18.53;59.10
64388;BME280;50709;52.648;4.764;2022-11-15T07:06:50;100645.31;;;18.41;59.74
64388;BME280;50709;52.648;4.764;2022-11-15T07:09:16;100636.88;;;18.30;59.75
64388;BME280;50709;52.648;4.764;2022-11-15T07:11:41;100651.88;;;18.29;59.98
64388;BME280;50709;52.648;4.764;2022-11-15T07:14:06;100653.06;;;18.19;60.16
64388;BME280;50709;52.648;4.764;2022-11-15T07:16:32;100638.50;;;18.07;60.51
64388;BME280;50709;52.648;4.764;2022-11-15T07:18:57;100655.59;;;17.95;60.14
64388;BME280;50709;52.648;4.764;2022-11-15T07:21:23;100661.09;;;17.88;60.71
64388;BME280;50709;52.648;4.764;2022-11-15T07:23:48;100664.59;;;17.88;61.26
64388;BME280;50709;52.648;4.764;2022-11-15T07:26:14;100654.06;;;17.87;60.51
64388;BME280;50709;52.648;4.764;2022-11-15T07:28:39;100646.19;;;17.85;61.03
64388;BME280;50709;52.648;4.764;2022-11-15T07:31:06;100633.81;;;17.59;60.87
64388;BME280;50709;52.648;4.764;2022-11-15T07:33:32;100626.13;;;17.51;61.05
64388;BME280;50709;52.648;4.764;2022-11-15T07:36:01;100656.06;;;17.50;60.80
64388;BME280;50709;52.648;4.764;2022-11-15T07:38:28;100633.47;;;17.41;61.45
64388;BME280;50709;52.648;4.764;2022-11-15T07:41:01;100661.34;;;17.50;61.13
64388;BME280;50709;52.648;4.764;2022-11-15T07:43:27;100653.69;;;17.41;61.28
64388;BME280;50709;52.648;4.764;2022-11-15T07:45:53;100647.88;;;17.29;61.50
64388;BME280;50709;52.648;4.764;2022-11-15T07:48:19;100647.03;;;17.27;61.90
64388;BME280;50709;52.648;4.764;2022-11-15T07:50:44;100642.06;;;17.17;61.92
64388;BME280;50709;52.648;4.764;2022-11-15T07:53:10;100630.72;;;17.14;61.95
64388;BME280;50709;52.648;4.764;2022-11-15T07:55:36;100636.16;;;17.08;62.12
64388;BME280;50709;52.648;4.764;2022-11-15T07:58:06;100635.34;;;17.06;61.98
64388;BME280;50709;52.648;4.764;2022-11-15T08:00:33;100640.69;;;17.03;62.55
64388;BME280;50709;52.648;4.764;2022-11-15T08:03:03;100631.31;;;16.93;61.59
64388;BME280;50709;52.648;4.764;2022-11-15T08:05:28;100635.69;;;16.92;61.72
64388;BME280;50709;52.648;4.764;2022-11-15T08:07:57;100634.97;;;16.86;61.98
64388;BME280;50709;52.648;4.764;2022-11-15T08:10:22;100643.97;;;16.78;62.10
64388;BME280;50709;52.648;4.764;2022-11-15T08:12:48;100630.97;;;16.72;62.24
64388;BME280;50709;52.648;4.764;2022-11-15T08:15:13;100603.22;;;16.57;62.27
64388;BME280;50709;52.648;4.764;2022-11-15T08:17:39;100643.16;;;16.75;62.19
64388;BME280;50709;52.648;4.764;2022-11-15T08:20:04;100654.56;;;16.77;61.96
64388;BME280;50709;52.648;4.764;2022-11-15T08:22:30;100639.06;;;16.64;61.92
64388;BME280;50709;52.648;4.764;2022-11-15T08:24:55;100635.63;;;16.61;62.31
64388;BME280;50709;52.648;4.764;2022-11-15T08:27:20;100644.44;;;16.60;62.51
64388;BME280;50709;52.648;4.764;2022-11-15T08:29:48;100631.41;;;16.55;62.22
64388;BME280;50709;52.648;4.764;2022-11-15T08:32:13;100613.13;;;16.47;61.98
64388;BME280;50709;52.648;4.764;2022-11-15T08:34:38;100616.72;;;16.45;62.25
64388;BME280;50709;52.648;4.764;2022-11-15T08:37:04;100607.06;;;16.45;62.00
64388;BME280;50709;52.648;4.764;2022-11-15T08:39:29;100597.50;;;16.41;62.40
64388;BME280;50709;52.648;4.764;2022-11-15T08:41:55;100602.63;;;16.46;62.52
64388;BME280;50709;52.648;4.764;2022-11-15T08:44:20;100601.75;;;16.47;62.34
64388;BME280;50709;52.648;4.764;2022-11-15T08:46:46;100603.44;;;16.50;62.46
64388;BME280;50709;52.648;4.764;2022-11-15T08:49:11;100611.34;;;16.50;62.71
64388;BME280;50709;52.648;4.764;2022-11-15T08:51:37;100609.66;;;16.47;62.80
64388;BME280;50709;52.648;4.764;2022-11-15T08:54:02;100594.13;;;16.36;62.73
64388;BME280;50709;52.648;4.764;2022-11-15T08:56:28;100590.78;;;16.29;62.79
64388;BME280;50709;52.648;4.764;2022-11-15T08:58:53;100606.41;;;16.36;62.76
64388;BME280;50709;52.648;4.764;2022-11-15T09:01:21;100579.44;;;16.26;62.35
64388;BME280;50709;52.648;4.764;2022-11-15T09:03:47;100577.56;;;16.31;62.07
64388;BME280;50709;52.648;4.764;2022-11-15T09:06:13;100589.88;;;16.30;62.75
64388;BME280;50709;52.648;4.764;2022-11-15T09:08:38;100566.56;;;16.13;62.46
64388;BME280;50709;52.648;4.764;2022-11-15T09:11:05;100601.03;;;16.40;62.58
64388;BME280;50709;52.648;4.764;2022-11-15T09:13:31;100597.66;;;16.35;62.58
64388;BME280;50709;52.648;4.764;2022-11-15T09:15:58;100570.06;;;16.14;62.57
64388;BME280;50709;52.648;4.764;2022-11-15T09:18:24;100581.25;;;16.24;62.68
64388;BME280;50709;52.648;4.764;2022-11-15T09:20:49;100597.78;;;16.29;62.11
64388;BME280;50709;52.648;4.764;2022-11-15T09:23:15;100594.44;;;16.24;62.55
64388;BME280;50709;52.648;4.764;2022-11-15T09:25:40;100593.06;;;16.07;62.71
64388;BME280;50709;52.648;4.764;2022-11-15T09:28:06;100604.03;;;16.25;62.64
64388;BME280;50709;52.648;4.764;2022-11-15T09:30:32;100580.53;;;16.17;62.31
64388;BME280;50709;52.648;4.764;2022-11-15T09:32:58;100590.97;;;16.22;62.38
64388;BME280;50709;52.648;4.764;2022-11-15T09:35:23;100584.31;;;16.07;62.50
64388;BME280;50709;52.648;4.764;2022-11-15T09:37:48;100593.91;;;16.09;62.00
64388;BME280;50709;52.648;4.764;2022-11-15T09:40:16;100598.09;;;16.17;62.35
64388;BME280;50709;52.648;4.764;2022-11-15T09:45:32;100592.84;;;16.17;62.23
64388;BME280;50709;52.648;4.764;2022-11-15T09:48:36;100591.94;;;16.18;62.12
64388;BME280;50709;52.648;4.764;2022-11-15T09:50:58;100588.41;;;16.19;62.27
64388;BME280;50709;52.648;4.764;2022-11-15T09:53:43;100586.56;;;16.22;62.08
64388;BME280;50709;52.648;4.764;2022-11-15T09:56:18;100558.47;;;16.21;62.30
64388;BME280;50709;52.648;4.764;2022-11-15T10:03:55;100582.81;;;16.31;61.57
64388;BME280;50709;52.648;4.764;2022-11-15T10:06:25;100562.88;;;16.21;61.77
64388;BME280;50709;52.648;4.764;2022-11-15T10:09:02;100576.56;;;16.35;62.01
64388;BME280;50709;52.648;4.764;2022-11-15T10:11:32;100573.78;;;16.41;61.48
64388;BME280;50709;52.648;4.764;2022-11-15T10:14:01;100589.25;;;16.54;61.50
64388;BME280;50709;52.648;4.764;2022-11-15T10:19:49;100591.41;;;16.71;61.65
64388;BME280;50709;52.648;4.764;2022-11-15T10:22:27;100582.81;;;16.65;61.69
64388;BME280;50709;52.648;4.764;2022-11-15T10:25:16;100574.91;;;16.65;61.14
64388;BME280;50709;52.648;4.764;2022-11-15T10:27:43;100569.47;;;16.70;61.13
64388;BME280;50709;52.648;4.764;2022-11-15T10:30:14;100558.13;;;16.68;61.17
64388;BME280;50709;52.648;4.764;2022-11-15T10:32:42;100552.56;;;16.46;61.04
64388;BME280;50709;52.648;4.764;2022-11-15T10:35:24;100528.88;;;16.44;61.09
64388;BME280;50709;52.648;4.764;2022-11-15T10:37:49;100553.09;;;16.59;61.52
64388;BME280;50709;52.648;4.764;2022-11-15T10:40:20;100548.81;;;16.55;61.54
64388;BME280;50709;52.648;4.764;2022-11-15T10:42:47;100499.25;;;16.36;61.19
64388;BME280;50709;52.648;4.764;2022-11-15T10:45:30;100533.66;;;16.63;60.82
64388;BME280;50709;52.648;4.764;2022-11-15T10:50:47;100488.50;;;16.42;60.50
64388;BME280;50709;52.648;4.764;2022-11-15T10:55:55;100501.28;;;16.25;60.33
64388;BME280;50709;52.648;4.764;2022-11-15T10:58:41;100508.09;;;16.34;60.42
64388;BME280;50709;52.648;4.764;2022-11-15T11:03:39;100496.59;;;16.36;60.25
64388;BME280;50709;52.648;4.764;2022-11-15T11:06:10;100486.25;;;16.28;60.33
64388;BME280;50709;52.648;4.764;2022-11-15T11:08:37;100498.34;;;16.37;60.56
64388;BME280;50709;52.648;4.764;2022-11-15T11:11:04;100507.00;;;16.41;60.31
64388;BME280;50709;52.648;4.764;2022-11-15T11:13:37;100514.34;;;16.29;60.43
64388;BME280;50709;52.648;4.764;2022-11-15T11:21:24;100500.63;;;16.50;60.75
64388;BME280;50709;52.648;4.764;2022-11-15T11:24:03;100498.78;;;16.52;59.58
64388;BME280;50709;52.648;4.764;2022-11-15T11:26:39;100503.56;;;16.39;59.13
64388;BME280;50709;52.648;4.764;2022-11-15T11:32:11;100470.66;;;16.21;59.90
64388;BME280;50709;52.648;4.764;2022-11-15T11:35:13;100499.53;;;16.25;59.28
64388;BME280;50709;52.648;4.764;2022-11-15T11:57:50;100455.94;;;16.45;60.08
64388;BME280;50709;52.648;4.764;2022-11-15T12:00:22;100456.72;;;16.48;59.73
64388;BME280;50709;52.648;4.764;2022-11-15T12:05:36;100403.00;;;16.23;59.86
64388;BME280;50709;52.648;4.764;2022-11-15T12:08:32;100442.63;;;16.50;60.10
64388;BME280;50709;52.648;4.764;2022-11-15T12:11:10;100428.78;;;16.43;59.61
64388;BME280;50709;52.648;4.764;2022-11-15T12:13:38;100411.63;;;16.28;59.52
64388;BME280;50709;52.648;4.764;2022-11-15T12:18:29;100421.88;;;16.39;59.68
64388;BME280;50709;52.648;4.764;2022-11-15T12:20:58;100409.94;;;16.25;59.33
64388;BME280;50709;52.648;4.764;2022-11-15T12:23:29;100388.91;;;16.24;59.83
64388;BME280;50709;52.648;4.764;2022-11-15T12:26:19;100381.13;;;16.19;59.31
64388;BME280;50709;52.648;4.764;2022-11-15T12:28:59;100398.91;;;16.42;59.89
64388;BME280;50709;52.648;4.764;2022-11-15T12:34:02;100399.59;;;16.49;59.55
64388;BME280;50709;52.648;4.764;2022-11-15T12:36:37;100384.91;;;16.40;59.88
64388;BME280;50709;52.648;4.764;2022-11-15T12:39:04;100391.81;;;16.44;59.71
64388;BME280;50709;52.648;4.764;2022-11-15T12:41:34;100386.72;;;16.38;60.09
64388;BME280;50709;52.648;4.764;2022-11-15T12:44:01;100371.06;;;16.34;60.00
64388;BME280;50709;52.648;4.764;2022-11-15T12:51:21;100378.75;;;16.41;58.77
64388;BME280;50709;52.648;4.764;2022-11-15T12:53:47;100373.38;;;16.44;58.91
64388;BME280;50709;52.648;4.764;2022-11-15T12:58:49;100364.75;;;16.39;59.03
64388;BME280;50709;52.648;4.764;2022-11-15T13:11:53;100343.88;;;16.31;58.83
64388;BME280;50709;52.648;4.764;2022-11-15T13:17:12;100335.38;;;16.22;58.43
64388;BME280;50709;52.648;4.764;2022-11-15T13:19:41;100323.91;;;16.24;58.47
64388;BME280;50709;52.648;4.764;2022-11-15T13:22:09;100326.38;;;16.30;58.41
64388;BME280;50709;52.648;4.764;2022-11-15T13:24:54;100303.50;;;16.01;58.01
64388;BME280;50709;52.648;4.764;2022-11-15T13:27:20;100322.22;;;16.22;58.27
64388;BME280;50709;52.648;4.764;2022-11-15T13:29:45;100322.31;;;16.19;57.92
64388;BME280;50709;52.648;4.764;2022-11-15T13:32:13;100270.84;;;16.07;58.32
64388;BME280;50709;52.648;4.764;2022-11-15T13:34:43;100271.69;;;16.09;58.35
64388;BME280;50709;52.648;4.764;2022-11-15T13:37:31;100304.03;;;16.42;58.30
64388;BME280;50709;52.648;4.764;2022-11-15T13:40:26;100294.22;;;16.47;58.13
64388;BME280;50709;52.648;4.764;2022-11-15T13:42:55;100287.19;;;16.48;58.13
64388;BME280;50709;52.648;4.764;2022-11-15T13:45:20;100282.25;;;16.37;58.08
64388;BME280;50709;52.648;4.764;2022-11-15T13:47:51;100279.50;;;16.40;58.15
64388;BME280;50709;52.648;4.764;2022-11-15T13:50:17;100262.97;;;16.35;58.25
64388;BME280;50709;52.648;4.764;2022-11-15T13:52:48;100257.13;;;16.25;58.54
64388;BME280;50709;52.648;4.764;2022-11-15T13:55:20;100268.47;;;16.27;58.13
64388;BME280;50709;52.648;4.764;2022-11-15T13:58:01;100255.34;;;16.26;58.46
64388;BME280;50709;52.648;4.764;2022-11-15T14:00:40;100270.19;;;16.28;58.33
64388;BME280;50709;52.648;4.764;2022-11-15T14:03:23;100237.34;;;16.12;57.73
64388;BME280;50709;52.648;4.764;2022-11-15T14:06:03;100250.47;;;16.13;58.30
64388;BME280;50709;52.648;4.764;2022-11-15T14:08:29;100253.88;;;16.17;57.87
64388;BME280;50709;52.648;4.764;2022-11-15T14:11:18;100251.81;;;16.27;58.51
64388;BME280;50709;52.648;4.764;2022-11-15T14:14:13;100243.19;;;16.22;58.22
64388;BME280;50709;52.648;4.764;2022-11-15T14:16:43;100253.59;;;16.26;58.33
64388;BME280;50709;52.648;4.764;2022-11-15T14:19:12;100250.97;;;16.25;57.96
64388;BME280;50709;52.648;4.764;2022-11-15T14:22:10;100235.28;;;16.22;57.93
64388;BME280;50709;52.648;4.764;2022-11-15T14:24:36;100219.69;;;16.16;57.84
64388;BME280;50709;52.648;4.764;2022-11-15T14:27:26;100223.22;;;16.14;57.62
64388;BME280;50709;52.648;4.764;2022-11-15T14:29:52;100218.66;;;16.20;57.86
64388;BME280;50709;52.648;4.764;2022-11-15T14:32:21;100205.84;;;16.09;57.96
64388;BME280;50709;52.648;4.764;2022-11-15T14:34:49;100204.88;;;16.11;57.42
64388;BME280;50709;52.648;4.764;2022-11-15T14:37:26;100192.84;;;16.03;57.53
64388;BME280;50709;52.648;4.764;2022-11-15T14:39:53;100199.69;;;16.08;56.96
64388;BME280;50709;52.648;4.764;2022-11-15T14:42:19;100195.56;;;16.00;57.21
64388;BME280;50709;52.648;4.764;2022-11-15T14:44:45;100197.16;;;16.05;57.17
64388;BME280;50709;52.648;4.764;2022-11-15T14:47:10;100211.31;;;16.01;57.11
64388;BME280;50709;52.648;4.764;2022-11-15T14:49:36;100201.91;;;15.94;56.81